createdAt,value
2023-05-05T00:02:21.581Z,9.90
2023-05-05T00:04:49.569Z,9.90
2023-05-05T00:07:17.467Z,10.00
2023-05-05T00:09:45.482Z,10.10
2023-05-05T00:12:14.808Z,10.10
2023-05-05T00:14:42.949Z,10.00
2023-05-05T00:17:11.070Z,10.00
2023-05-05T00:19:39.107Z,10.00
2023-05-05T00:22:07.049Z,9.90
2023-05-05T00:24:34.956Z,9.90
2023-05-05T00:27:03.478Z,9.90
2023-05-05T00:29:32.840Z,9.90
2023-05-05T00:32:00.781Z,9.90
2023-05-05T00:34:28.687Z,9.90
2023-05-05T00:36:56.612Z,9.90
2023-05-05T00:39:24.619Z,9.90
2023-05-05T00:41:52.573Z,9.80
2023-05-05T00:44:40.140Z,9.70
2023-05-05T00:47:08.705Z,9.80
2023-05-05T00:49:37.232Z,9.60
2023-05-05T00:52:06.707Z,9.60
2023-05-05T00:54:35.045Z,9.60
2023-05-05T00:57:03.503Z,9.50
2023-05-05T00:59:32.117Z,9.50
2023-05-05T01:02:01.521Z,9.50
2023-05-05T01:04:29.589Z,9.50
2023-05-05T01:07:10.854Z,9.40
2023-05-05T01:09:48.173Z,9.40
2023-05-05T01:12:23.545Z,9.40
2023-05-05T01:15:01.457Z,9.30
2023-05-05T01:17:38.134Z,9.40
2023-05-05T01:20:18.217Z,9.40
2023-05-05T01:22:48.259Z,9.40
2023-05-05T01:26:06.693Z,9.30
2023-05-05T01:28:59.829Z,9.20
2023-05-05T01:31:58.347Z,9.20
2023-05-05T01:34:33.051Z,9.10
2023-05-05T01:37:17.640Z,9.10
2023-05-05T01:39:49.642Z,9.10
2023-05-05T01:42:18.688Z,9.10
2023-05-05T01:44:47.569Z,9.10
2023-05-05T01:47:19.465Z,9.00
2023-05-05T01:49:48.769Z,8.90
2023-05-05T01:52:17.189Z,8.90
2023-05-05T01:54:46.755Z,8.90
2023-05-05T01:57:16.104Z,8.80
2023-05-05T01:59:44.162Z,8.80
2023-05-05T02:02:14.098Z,8.70
2023-05-05T02:04:45.594Z,8.70
2023-05-05T02:07:15.550Z,8.70
2023-05-05T02:09:45.107Z,8.50
2023-05-05T02:12:13.924Z,8.60
2023-05-05T02:14:43.612Z,8.60
2023-05-05T02:17:13.244Z,8.50
2023-05-05T02:19:44.914Z,8.50
2023-05-05T02:22:15.431Z,8.40
2023-05-05T02:24:43.729Z,8.30
2023-05-05T02:27:12.909Z,8.30
2023-05-05T02:29:47.017Z,8.20
2023-05-05T02:32:19.770Z,8.20
2023-05-05T02:34:50.537Z,8.20
2023-05-05T02:37:24.159Z,8.30
2023-05-05T02:39:59.064Z,8.20
2023-05-05T02:42:30.491Z,8.10
2023-05-05T02:45:02.534Z,8.00
2023-05-05T02:47:36.517Z,8.00
2023-05-05T02:50:07.412Z,7.90
2023-05-05T02:52:36.742Z,7.90
2023-05-05T02:55:06.666Z,7.90
2023-05-05T02:57:39.294Z,7.80
2023-05-05T03:00:14.970Z,7.70
2023-05-05T03:02:47.863Z,7.60
2023-05-05T03:05:23.359Z,7.50
2023-05-05T03:07:56.969Z,7.40
2023-05-05T03:10:31.024Z,7.40
2023-05-05T03:13:01.667Z,7.30
2023-05-05T03:15:41.066Z,7.20
2023-05-05T03:18:10.754Z,7.20
2023-05-05T03:20:41.494Z,7.20
2023-05-05T03:23:09.898Z,7.10
2023-05-05T03:25:44.581Z,7.00
2023-05-05T03:28:12.557Z,7.00
2023-05-05T03:30:40.728Z,7.00
2023-05-05T03:33:09.343Z,6.90
2023-05-05T03:35:38.067Z,7.00
2023-05-05T03:38:07.388Z,6.90
2023-05-05T03:40:43.612Z,6.90
2023-05-05T03:43:12.719Z,6.90
2023-05-05T03:45:40.686Z,6.90
2023-05-05T03:48:09.736Z,7.00
2023-05-05T03:50:37.845Z,7.00
2023-05-05T03:53:07.204Z,7.00
2023-05-05T03:55:35.274Z,7.00
2023-05-05T03:58:03.175Z,7.00
2023-05-05T04:00:31.088Z,7.10
2023-05-05T04:02:59.197Z,7.10
2023-05-05T04:05:27.477Z,7.20
2023-05-05T04:07:55.548Z,7.20
2023-05-05T04:10:24.773Z,7.30
2023-05-05T04:12:52.779Z,7.40
2023-05-05T04:15:20.813Z,7.50
2023-05-05T04:17:48.747Z,7.50
2023-05-05T04:20:16.847Z,7.60
2023-05-05T04:22:44.878Z,7.70
2023-05-05T04:25:12.701Z,7.90
2023-05-05T04:27:41.989Z,8.10
2023-05-05T04:30:10.857Z,8.30
2023-05-05T04:32:38.710Z,8.40
2023-05-05T04:35:07.806Z,8.50
2023-05-05T04:37:35.806Z,8.50
2023-05-05T04:40:03.695Z,8.60
2023-05-05T04:42:31.648Z,8.70
2023-05-05T04:45:00.794Z,8.80
2023-05-05T04:47:28.761Z,9.10
2023-05-05T04:49:56.982Z,9.30
2023-05-05T04:52:24.929Z,9.60
2023-05-05T04:54:52.845Z,9.90
2023-05-05T04:57:20.762Z,10.20
2023-05-05T04:59:48.616Z,10.40
2023-05-05T05:02:18.310Z,10.50
2023-05-05T05:04:46.800Z,10.70
2023-05-05T05:07:15.542Z,10.80
2023-05-05T05:09:43.462Z,10.90
2023-05-05T05:12:11.353Z,11.10
2023-05-05T05:14:39.502Z,11.30
2023-05-05T05:17:07.779Z,11.50
2023-05-05T05:19:37.080Z,11.80
2023-05-05T05:22:05.030Z,11.90
2023-05-05T05:24:34.770Z,11.90
2023-05-05T05:27:10.189Z,11.90
2023-05-05T05:29:38.329Z,11.80
2023-05-05T05:32:06.809Z,11.60
2023-05-05T05:34:36.224Z,11.70
2023-05-05T05:37:04.065Z,12.00
2023-05-05T05:39:31.989Z,12.20
2023-05-05T05:41:59.773Z,12.60
2023-05-05T05:44:27.589Z,12.80
2023-05-05T05:46:55.378Z,12.90
2023-05-05T05:49:23.342Z,13.10
2023-05-05T05:51:52.790Z,13.10
2023-05-05T05:54:20.751Z,13.30
2023-05-05T05:56:48.672Z,13.50
2023-05-05T05:59:16.584Z,13.80
2023-05-05T06:01:44.489Z,14.00
2023-05-05T06:04:13.269Z,13.80
2023-05-05T06:06:41.243Z,13.50
2023-05-05T06:09:10.488Z,13.40
2023-05-05T06:11:38.370Z,13.40
2023-05-05T06:14:06.263Z,13.50
2023-05-05T06:16:34.317Z,13.30
2023-05-05T06:19:02.265Z,13.30
2023-05-05T06:21:30.602Z,13.40
2023-05-05T06:23:58.544Z,13.50
2023-05-05T06:26:28.008Z,13.60
2023-05-05T06:28:56.041Z,13.80
2023-05-05T06:31:24.003Z,14.00
2023-05-05T06:33:51.891Z,14.20
2023-05-05T06:36:19.975Z,14.30
2023-05-05T06:38:48.015Z,14.30
2023-05-05T06:41:16.000Z,14.50
2023-05-05T06:43:45.311Z,14.70
2023-05-05T06:46:13.337Z,14.90
2023-05-05T06:48:41.379Z,15.00
2023-05-05T06:51:10.530Z,15.20
2023-05-05T06:53:38.395Z,15.20
2023-05-05T06:56:06.824Z,15.30
2023-05-05T06:58:34.964Z,15.60
2023-05-05T07:01:04.561Z,15.80
2023-05-05T07:03:32.538Z,16.00
2023-05-05T07:06:00.468Z,16.00
2023-05-05T07:08:28.322Z,15.90
2023-05-05T07:10:56.276Z,15.80
2023-05-05T07:13:24.355Z,15.90
2023-05-05T07:15:52.303Z,16.00
2023-05-05T07:18:21.912Z,16.00
2023-05-05T07:20:49.943Z,16.10
2023-05-05T07:23:17.867Z,16.20
2023-05-05T07:25:46.224Z,16.30
2023-05-05T07:28:14.264Z,16.60
2023-05-05T07:30:42.200Z,16.70
2023-05-05T07:33:11.370Z,16.80
2023-05-05T07:35:41.129Z,16.60
2023-05-05T07:38:10.765Z,16.80
2023-05-05T07:40:39.101Z,17.00
2023-05-05T07:43:07.075Z,17.00
2023-05-05T07:45:35.082Z,17.00
2023-05-05T07:48:03.001Z,17.10
2023-05-05T07:50:31.122Z,17.20
2023-05-05T07:53:10.812Z,17.20
2023-05-05T07:55:43.088Z,17.30
2023-05-05T07:58:11.756Z,17.40
2023-05-05T08:00:39.793Z,17.60
2023-05-05T08:03:10.709Z,17.80
2023-05-05T08:05:39.823Z,18.10
2023-05-05T08:08:09.137Z,18.20
2023-05-05T08:10:37.406Z,18.10
2023-05-05T08:13:05.330Z,18.00
2023-05-05T08:15:33.381Z,18.20
2023-05-05T08:18:01.340Z,18.30
2023-05-05T08:20:30.502Z,18.50
2023-05-05T08:22:59.761Z,18.60
2023-05-05T08:25:29.060Z,18.40
2023-05-05T08:27:57.005Z,18.50
2023-05-05T08:30:25.393Z,18.70
2023-05-05T08:32:53.663Z,19.00
2023-05-05T08:35:21.832Z,19.10
2023-05-05T08:37:49.774Z,19.10
2023-05-05T08:40:17.677Z,19.30
2023-05-05T08:42:46.972Z,19.40
2023-05-05T08:45:15.875Z,19.50
2023-05-05T08:47:44.804Z,19.60
2023-05-05T08:50:13.329Z,19.50
2023-05-05T08:52:44.383Z,19.50
2023-05-05T08:55:18.985Z,19.50
2023-05-05T08:57:53.146Z,19.60
2023-05-05T09:00:21.960Z,19.50
2023-05-05T09:02:50.873Z,19.60
2023-05-05T09:05:19.462Z,19.70
2023-05-05T09:07:47.731Z,19.40
2023-05-05T09:10:16.067Z,19.60
2023-05-05T09:12:44.227Z,19.60
2023-05-05T09:15:15.843Z,19.50
2023-05-05T09:17:44.143Z,19.30
2023-05-05T09:20:13.439Z,19.40
2023-05-05T09:22:42.748Z,19.60
2023-05-05T09:25:12.532Z,19.80
2023-05-05T09:27:42.040Z,20.10
2023-05-05T09:30:24.096Z,20.30
2023-05-05T09:32:53.939Z,20.60
2023-05-05T09:35:23.499Z,20.60
2023-05-05T09:37:51.598Z,20.60
2023-05-05T09:40:20.821Z,20.70
2023-05-05T09:42:49.513Z,20.70
2023-05-05T09:45:28.731Z,20.60
2023-05-05T09:47:59.850Z,20.60
2023-05-05T09:50:30.750Z,20.60
2023-05-05T09:53:00.307Z,20.70
2023-05-05T09:55:28.607Z,20.80
2023-05-05T09:57:56.770Z,20.60
2023-05-05T10:00:40.175Z,20.60
2023-05-05T10:03:08.111Z,20.40
2023-05-05T10:05:48.870Z,20.50
2023-05-05T10:08:17.269Z,20.60
2023-05-05T10:10:51.910Z,20.70
2023-05-05T10:13:21.499Z,20.90
2023-05-05T10:15:52.969Z,21.00
2023-05-05T10:18:23.256Z,21.00
2023-05-05T10:20:58.754Z,20.80
2023-05-05T10:23:35.561Z,20.80
2023-05-05T10:26:06.944Z,20.80
2023-05-05T10:28:38.211Z,20.80
2023-05-05T10:31:24.583Z,20.80
2023-05-05T10:33:58.597Z,20.90
2023-05-05T10:36:27.960Z,21.10
2023-05-05T10:38:58.338Z,21.10
2023-05-05T10:41:26.881Z,21.10
2023-05-05T10:43:57.371Z,21.00
2023-05-05T10:46:28.083Z,21.00
2023-05-05T10:49:00.935Z,20.90
2023-05-05T10:51:40.481Z,21.00
2023-05-05T10:54:15.324Z,20.90
2023-05-05T10:56:43.990Z,20.80
2023-05-05T10:59:44.075Z,20.90
2023-05-05T11:02:24.664Z,20.70
2023-05-05T11:05:09.466Z,20.80
2023-05-05T11:07:37.911Z,20.90
2023-05-05T11:10:07.283Z,21.00
2023-05-05T11:13:14.206Z,20.80
2023-05-05T11:15:42.155Z,20.70
2023-05-05T11:18:30.492Z,20.60
2023-05-05T11:21:18.221Z,20.60
2023-05-05T11:23:51.107Z,20.80
2023-05-05T11:26:40.101Z,20.90
2023-05-05T11:29:08.477Z,21.00
2023-05-05T11:31:36.528Z,21.00
2023-05-05T11:34:28.793Z,21.20
2023-05-05T11:37:03.563Z,21.20
2023-05-05T11:39:42.001Z,21.20
2023-05-05T11:42:25.128Z,21.30
2023-05-05T11:44:53.469Z,21.20
2023-05-05T11:47:32.214Z,21.30
2023-05-05T11:50:18.340Z,21.50
2023-05-05T11:52:46.579Z,21.70
2023-05-05T11:55:20.005Z,21.80
2023-05-05T11:57:48.053Z,21.90
2023-05-05T12:00:16.948Z,22.10
2023-05-05T12:02:45.041Z,22.20
2023-05-05T12:05:20.884Z,22.20
2023-05-05T12:07:49.037Z,22.20
2023-05-05T12:10:24.094Z,22.30
2023-05-05T12:12:55.463Z,22.20
2023-05-05T12:15:31.444Z,22.10
2023-05-05T12:18:01.625Z,22.10
2023-05-05T12:20:33.452Z,22.10
2023-05-05T12:23:05.751Z,22.10
2023-05-05T12:25:38.506Z,22.10
2023-05-05T12:28:07.696Z,22.10
2023-05-05T12:30:36.417Z,22.10
2023-05-05T12:33:05.574Z,22.10
2023-05-05T12:35:35.754Z,22.20
2023-05-05T12:38:04.078Z,22.20
2023-05-05T12:40:46.236Z,22.30
2023-05-05T12:43:32.913Z,22.30
2023-05-05T12:46:03.005Z,22.30
2023-05-05T12:48:31.024Z,22.30
2023-05-05T12:51:14.906Z,22.30
2023-05-05T12:53:43.292Z,22.20
2023-05-05T12:56:35.866Z,22.30
2023-05-05T12:59:05.470Z,22.50
2023-05-05T13:01:33.541Z,22.40
2023-05-05T13:04:12.784Z,22.50
2023-05-05T13:06:44.044Z,22.70
2023-05-05T13:09:24.046Z,22.60
2023-05-05T13:11:52.647Z,22.70
2023-05-05T13:14:20.563Z,22.60
2023-05-05T13:16:48.678Z,22.80
2023-05-05T13:19:16.903Z,22.90
2023-05-05T13:21:46.239Z,23.00
2023-05-05T13:24:25.977Z,23.20
2023-05-05T13:27:02.903Z,23.30
2023-05-05T13:29:31.709Z,23.30
2023-05-05T13:31:59.993Z,23.30
2023-05-05T13:34:28.251Z,23.30
2023-05-05T13:36:57.680Z,23.30
2023-05-05T13:39:25.644Z,23.20
2023-05-05T13:41:53.622Z,23.30
2023-05-05T13:44:21.979Z,23.40
2023-05-05T13:46:50.156Z,23.40
2023-05-05T13:49:18.287Z,23.40
2023-05-05T13:51:47.047Z,23.30
2023-05-05T13:54:16.598Z,23.40
2023-05-05T13:56:44.539Z,23.10
2023-05-05T13:59:12.830Z,23.10
2023-05-05T14:01:40.800Z,23.00
2023-05-05T14:04:09.101Z,23.10
2023-05-05T14:06:37.088Z,23.00
2023-05-05T14:09:06.428Z,22.80
2023-05-05T14:11:36.180Z,22.90
2023-05-05T14:14:04.148Z,23.10
2023-05-05T14:16:32.084Z,23.10
2023-05-05T14:19:00.106Z,23.10
2023-05-05T14:21:27.960Z,23.10
2023-05-05T14:23:55.931Z,23.10
2023-05-05T14:26:23.966Z,23.30
2023-05-05T14:28:53.162Z,23.30
2023-05-05T14:31:21.211Z,23.40
2023-05-05T14:33:49.129Z,23.30
2023-05-05T14:36:17.226Z,23.10
2023-05-05T14:38:45.150Z,22.80
2023-05-05T14:41:13.340Z,22.50
2023-05-05T14:43:41.559Z,22.30
2023-05-05T14:46:10.980Z,22.30
2023-05-05T14:48:38.969Z,22.20
2023-05-05T14:51:06.976Z,22.10
2023-05-05T14:53:35.861Z,22.30
2023-05-05T14:56:03.882Z,22.40
2023-05-05T14:58:31.862Z,22.50
2023-05-05T15:01:00.524Z,22.70
2023-05-05T15:03:30.250Z,22.80
2023-05-05T15:05:58.440Z,22.60
2023-05-05T15:08:26.422Z,22.50
2023-05-05T15:10:54.396Z,22.40
2023-05-05T15:13:22.706Z,22.20
2023-05-05T15:15:51.270Z,22.10
2023-05-05T15:18:19.536Z,22.10
2023-05-05T15:20:48.738Z,21.90
2023-05-05T15:23:16.860Z,21.70
2023-05-05T15:25:45.439Z,21.60
2023-05-05T15:28:13.408Z,21.50
2023-05-05T15:30:41.514Z,21.40
2023-05-05T15:33:09.458Z,21.30
2023-05-05T15:35:37.475Z,21.20
2023-05-05T15:38:06.765Z,21.10
2023-05-05T15:40:34.798Z,21.10
2023-05-05T15:43:02.869Z,21.00
2023-05-05T15:45:30.939Z,20.90
2023-05-05T15:47:58.903Z,20.80
2023-05-05T15:50:26.932Z,20.70
2023-05-05T15:52:56.935Z,20.70
2023-05-05T15:55:26.663Z,20.60
2023-05-05T15:57:55.223Z,20.60
2023-05-05T16:00:23.700Z,20.60
2023-05-05T16:02:51.744Z,20.50
2023-05-05T16:05:22.144Z,20.50
2023-05-05T16:07:50.958Z,20.40
2023-05-05T16:10:20.460Z,20.30
2023-05-05T16:12:52.531Z,20.20
2023-05-05T16:15:20.950Z,20.20
2023-05-05T16:17:48.879Z,20.10
2023-05-05T16:20:16.971Z,20.00
2023-05-05T16:22:45.000Z,20.00
2023-05-05T16:25:12.901Z,19.80
2023-05-05T16:27:40.849Z,19.80
2023-05-05T16:30:12.874Z,19.70
2023-05-05T16:32:40.958Z,19.50
2023-05-05T16:35:09.482Z,19.50
2023-05-05T16:37:37.499Z,19.40
2023-05-05T16:40:06.844Z,19.30
2023-05-05T16:42:34.878Z,19.30
2023-05-05T16:45:02.888Z,19.30
2023-05-05T16:47:32.543Z,19.20
2023-05-05T16:50:00.481Z,19.20
2023-05-05T16:52:28.472Z,19.10
2023-05-05T16:54:56.709Z,19.00
2023-05-05T16:57:24.903Z,19.00
2023-05-05T16:59:55.756Z,18.80
2023-05-05T17:02:23.767Z,18.80
2023-05-05T17:04:53.257Z,18.70
2023-05-05T17:07:21.451Z,18.70
2023-05-05T17:09:49.331Z,18.60
2023-05-05T17:12:17.358Z,18.50
2023-05-05T17:14:45.986Z,18.50
2023-05-05T17:17:14.243Z,18.40
2023-05-05T17:19:42.710Z,18.30
2023-05-05T17:22:12.012Z,18.30
2023-05-05T17:24:40.085Z,18.30
2023-05-05T17:27:11.655Z,18.30
2023-05-05T17:29:41.279Z,18.20
2023-05-05T17:32:09.898Z,18.10
2023-05-05T17:34:38.010Z,18.10
2023-05-05T17:37:06.057Z,18.10
2023-05-05T17:39:35.825Z,18.00
2023-05-05T17:42:03.731Z,18.00
2023-05-05T17:44:32.657Z,17.90
2023-05-05T17:47:00.628Z,17.90
2023-05-05T17:49:28.599Z,17.80
2023-05-05T17:51:56.486Z,17.80
2023-05-05T17:54:24.748Z,17.80
2023-05-05T17:56:55.090Z,17.70
2023-05-05T17:59:23.015Z,17.60
2023-05-05T18:01:50.977Z,17.60
2023-05-05T18:04:18.976Z,17.60
2023-05-05T18:06:47.147Z,17.50
2023-05-05T18:09:16.634Z,17.40
2023-05-05T18:11:45.957Z,17.40
2023-05-05T18:14:15.363Z,17.40
2023-05-05T18:16:48.907Z,17.40
2023-05-05T18:19:17.338Z,17.40
2023-05-05T18:21:49.202Z,17.30
2023-05-05T18:24:20.439Z,17.30
2023-05-05T18:26:49.934Z,17.30
2023-05-05T18:29:19.891Z,17.20
2023-05-05T18:31:51.654Z,17.10
2023-05-05T18:34:20.674Z,17.10
2023-05-05T18:36:49.245Z,17.00
2023-05-05T18:39:18.644Z,17.10
2023-05-05T18:41:46.861Z,17.10
2023-05-05T18:44:14.720Z,17.00
2023-05-05T18:46:44.152Z,17.00
2023-05-05T18:49:12.531Z,16.90
2023-05-05T18:51:40.509Z,16.90
2023-05-05T18:54:08.655Z,16.80
2023-05-05T18:56:36.784Z,16.80
2023-05-05T18:59:05.175Z,16.80
2023-05-05T19:01:33.350Z,16.80
2023-05-05T19:04:02.762Z,16.70
2023-05-05T19:06:31.073Z,16.60
2023-05-05T19:08:59.030Z,16.60
2023-05-05T19:11:27.038Z,16.50
2023-05-05T19:13:54.943Z,16.50
2023-05-05T19:16:22.998Z,16.40
2023-05-05T19:18:51.020Z,16.40
2023-05-05T19:21:20.497Z,16.30
2023-05-05T19:23:48.390Z,16.30
2023-05-05T19:26:16.500Z,16.20
2023-05-05T19:28:44.559Z,16.10
2023-05-05T19:31:12.639Z,16.10
2023-05-05T19:33:44.867Z,16.10
2023-05-05T19:36:13.516Z,16.00
2023-05-05T19:38:44.576Z,16.00
2023-05-05T19:41:12.827Z,15.90
2023-05-05T19:43:40.763Z,15.80
2023-05-05T19:46:08.704Z,15.70
2023-05-05T19:48:38.065Z,15.70
2023-05-05T19:51:06.100Z,15.60
2023-05-05T19:53:34.100Z,15.60
2023-05-05T19:56:04.766Z,15.50
2023-05-05T19:58:35.247Z,15.50
2023-05-05T20:01:03.315Z,15.50
2023-05-05T20:03:31.476Z,15.50
2023-05-05T20:05:59.536Z,15.30
2023-05-05T20:08:27.554Z,15.30
2023-05-05T20:10:55.423Z,15.30
2023-05-05T20:13:24.725Z,15.30
2023-05-05T20:15:52.725Z,15.30
2023-05-05T20:18:20.661Z,15.40
2023-05-05T20:20:48.680Z,15.20
2023-05-05T20:23:16.631Z,15.20
2023-05-05T20:25:44.675Z,15.20
2023-05-05T20:28:12.607Z,15.20
2023-05-05T20:30:42.061Z,15.10
2023-05-05T20:33:10.082Z,15.00
2023-05-05T20:35:38.106Z,14.80
2023-05-05T20:38:06.100Z,14.60
2023-05-05T20:40:34.363Z,14.30
2023-05-05T20:43:02.404Z,14.20
2023-05-05T20:45:31.776Z,14.00
2023-05-05T20:48:01.413Z,13.80
2023-05-05T20:50:29.553Z,13.70
2023-05-05T20:52:57.491Z,13.60
2023-05-05T20:55:26.759Z,13.50
2023-05-05T20:57:54.760Z,13.40
2023-05-05T21:00:22.934Z,13.30
2023-05-05T21:02:50.947Z,13.30
2023-05-05T21:05:20.751Z,13.20
2023-05-05T21:07:48.641Z,13.10
2023-05-05T21:10:16.577Z,13.10
2023-05-05T21:12:45.415Z,13.00
2023-05-05T21:15:13.456Z,13.00
2023-05-05T21:17:41.308Z,13.00
2023-05-05T21:20:10.763Z,12.90
2023-05-05T21:22:40.212Z,12.90
2023-05-05T21:25:15.806Z,12.70
2023-05-05T21:27:43.882Z,12.90
2023-05-05T21:30:12.795Z,12.80
2023-05-05T21:32:41.237Z,12.70
2023-05-05T21:35:10.245Z,12.70
2023-05-05T21:37:40.314Z,12.50
2023-05-05T21:40:10.935Z,12.40
2023-05-05T21:42:39.177Z,12.30
2023-05-05T21:45:08.019Z,12.30
2023-05-05T21:47:36.059Z,12.20
2023-05-05T21:50:04.148Z,12.10
2023-05-05T21:52:32.110Z,12.00
2023-05-05T21:55:01.438Z,11.90
2023-05-05T21:57:29.475Z,12.00
2023-05-05T21:59:57.396Z,11.90
2023-05-05T22:02:25.506Z,11.90
2023-05-05T22:04:53.493Z,11.80
2023-05-05T22:07:21.478Z,11.70
2023-05-05T22:09:49.413Z,11.70
2023-05-05T22:12:18.746Z,11.60
2023-05-05T22:14:47.076Z,11.50
2023-05-05T22:17:15.066Z,11.40
2023-05-05T22:19:42.994Z,11.40
2023-05-05T22:22:10.862Z,11.30
2023-05-05T22:24:38.791Z,11.20
2023-05-05T22:27:06.726Z,11.20
2023-05-05T22:29:36.898Z,11.10
2023-05-05T22:32:04.883Z,11.10
2023-05-05T22:34:32.814Z,11.10
2023-05-05T22:37:00.676Z,11.10
2023-05-05T22:39:28.549Z,11.00
2023-05-05T22:41:56.476Z,11.10
2023-05-05T22:44:24.493Z,10.90
2023-05-05T22:46:53.991Z,11.00
2023-05-05T22:49:22.731Z,10.80
2023-05-05T22:51:51.205Z,10.80
2023-05-05T22:54:19.057Z,10.80
2023-05-05T22:56:47.329Z,10.70
2023-05-05T22:59:15.183Z,10.70
2023-05-05T23:01:43.424Z,10.60
2023-05-05T23:04:12.676Z,10.60
2023-05-05T23:06:41.352Z,10.60
2023-05-05T23:09:09.386Z,10.50
2023-05-05T23:11:37.347Z,10.40
2023-05-05T23:14:05.330Z,10.40
2023-05-05T23:16:33.211Z,10.30
2023-05-05T23:19:01.107Z,10.30
2023-05-05T23:21:33.928Z,10.30
2023-05-05T23:24:04.072Z,10.20
2023-05-05T23:26:32.102Z,10.20
2023-05-05T23:28:59.975Z,10.20
2023-05-05T23:31:27.916Z,10.20
2023-05-05T23:33:55.842Z,10.10
2023-05-05T23:36:23.698Z,10.10
2023-05-05T23:38:52.949Z,10.20
2023-05-05T23:41:20.827Z,10.20
2023-05-05T23:43:48.720Z,10.20
2023-05-05T23:46:16.711Z,10.10
2023-05-05T23:48:44.653Z,10.10
2023-05-05T23:51:12.497Z,10.00
2023-05-05T23:53:40.425Z,10.00
2023-05-05T23:56:10.290Z,10.00
2023-05-05T23:58:38.160Z,9.90
